KCUB

Jim Hamilton L B Owens Airport

Columbia, South Carolina, USA
METAR KCUB 220653Z AUTO 00000KT 7SM CLR 22/20 A3013 RMK AO2 SLP201 T02170200
Observed Flight Rules
Sep-22 @ 06:53 UTC (29 minutes ago) Visual Flight Rules
Visibility Clouds
7 miles
Temperatures Readings
Current 22°C / 72°F
Dewpoint 20°C / 68°F
Humidity 88%
Altimeter 30.13" Hg
Pressure 1020.1 hPa
Elevation 56
METAR KCUB 220653Z AUTO 00000KT 7SM CLR 22/20 A3013 RMK AO2 SLP201 T02170200
Observed Flight Rules
Sep-22 @ 06:53 UTC
(29 minutes ago)
VFR
Clouds
Temperature Dewpoint
22°C / 72°F 20°C / 68°F
Humidity Altimeter Pressure
88% 30.13" Hg 1020.1 hPa